createdAt,value
2022-08-27T00:00:47.156Z,16.10
2022-08-27T00:05:49.631Z,15.27
2022-08-27T00:10:52.142Z,14.50
2022-08-27T00:15:54.499Z,16.57
2022-08-27T00:20:56.973Z,15.07
2022-08-27T00:26:00.289Z,15.07
2022-08-27T00:31:02.578Z,14.93
2022-08-27T00:36:05.420Z,15.40
2022-08-27T00:41:18.331Z,15.27
2022-08-27T00:46:25.729Z,15.20
2022-08-27T00:51:29.282Z,15.10
2022-08-27T00:56:45.524Z,13.70
2022-08-27T01:02:12.255Z,16.83
2022-08-27T01:07:15.004Z,14.90
2022-08-27T01:12:17.482Z,16.23
2022-08-27T01:17:20.383Z,14.20
2022-08-27T01:22:42.604Z,13.73
2022-08-27T01:27:49.263Z,14.10
2022-08-27T01:32:51.675Z,14.07
2022-08-27T01:37:57.091Z,16.53
2022-08-27T01:43:00.584Z,15.03
2022-08-27T01:48:03.858Z,15.80
2022-08-27T01:53:09.311Z,16.40
2022-08-27T01:58:15.058Z,17.23
2022-08-27T02:03:18.776Z,17.40
2022-08-27T02:08:21.486Z,15.67
2022-08-27T02:13:24.002Z,15.10
2022-08-27T02:18:26.386Z,18.13
2022-08-27T02:23:28.760Z,16.80
2022-08-27T02:28:31.025Z,17.53
2022-08-27T02:33:33.755Z,17.87
2022-08-27T02:38:36.210Z,17.00
2022-08-27T02:43:38.816Z,16.50
2022-08-27T02:48:41.431Z,17.10
2022-08-27T02:53:44.225Z,17.13
2022-08-27T02:58:48.097Z,17.97
2022-08-27T03:03:51.361Z,16.30
2022-08-27T03:08:53.757Z,16.50
2022-08-27T03:13:56.092Z,17.30
2022-08-27T03:18:58.327Z,17.43
2022-08-27T03:24:11.146Z,16.60
2022-08-27T03:29:14.183Z,17.27
2022-08-27T03:34:19.747Z,19.87
2022-08-27T03:39:22.396Z,18.73
2022-08-27T03:44:25.019Z,18.40
2022-08-27T03:49:27.249Z,19.07
2022-08-27T03:54:48.343Z,20.80
2022-08-27T03:59:52.284Z,18.90
2022-08-27T04:04:58.027Z,20.63
2022-08-27T04:10:00.821Z,21.60
2022-08-27T04:15:03.357Z,19.30
2022-08-27T04:20:34.205Z,19.50
2022-08-27T04:25:31.543Z,17.53
2022-08-27T04:30:33.833Z,18.53
2022-08-27T04:35:36.544Z,22.60
2022-08-27T04:41:09.406Z,20.07
2022-08-27T04:46:12.160Z,21.53
2022-08-27T04:51:14.634Z,20.03
2022-08-27T04:56:22.934Z,18.83
2022-08-27T05:01:30.017Z,20.83
2022-08-27T05:06:33.287Z,20.27
2022-08-27T05:16:59.520Z,22.33
2022-08-27T05:22:04.799Z,24.70
2022-08-27T05:27:12.989Z,22.20
2022-08-27T05:32:15.432Z,21.80
2022-08-27T05:37:17.829Z,19.67
2022-08-27T05:42:20.173Z,20.57
2022-08-27T05:47:23.224Z,20.23
2022-08-27T05:52:25.772Z,21.13
2022-08-27T05:57:28.022Z,18.70
2022-08-27T06:02:30.516Z,18.95
2022-08-27T06:07:35.178Z,18.40
2022-08-27T06:12:37.550Z,18.08
2022-08-27T06:17:39.800Z,16.98
2022-08-27T06:22:42.217Z,17.40
2022-08-27T06:27:46.258Z,15.82
2022-08-27T06:32:48.662Z,15.10
2022-08-27T06:37:51.633Z,14.60
2022-08-27T06:42:54.016Z,13.75
2022-08-27T06:47:56.404Z,14.07
2022-08-27T06:53:00.326Z,13.70
2022-08-27T06:58:03.903Z,12.75
2022-08-27T07:03:06.736Z,12.25
2022-08-27T07:08:10.546Z,12.45
2022-08-27T07:13:12.917Z,14.13
2022-08-27T07:18:15.276Z,12.70
2022-08-27T07:23:37.061Z,16.50
2022-08-27T07:28:42.823Z,16.33
2022-08-27T07:33:46.151Z,16.30
2022-08-27T07:39:03.196Z,15.80
2022-08-27T07:44:25.993Z,16.25
2022-08-27T07:49:29.333Z,14.93
2022-08-27T07:54:38.260Z,16.83
2022-08-27T07:59:41.645Z,17.15
2022-08-27T08:04:47.939Z,21.98
2022-08-27T08:09:50.308Z,24.38
2022-08-27T08:14:58.033Z,23.17
2022-08-27T08:20:20.029Z,22.60
2022-08-27T08:25:24.827Z,23.88
2022-08-27T08:35:45.730Z,26.42
2022-08-27T08:40:54.526Z,30.45
2022-08-27T08:45:58.927Z,20.48
2022-08-27T09:01:58.833Z,15.55
2022-08-27T09:07:23.150Z,16.27
2022-08-27T09:12:33.698Z,17.48
2022-08-27T09:17:37.051Z,16.98
2022-08-27T09:22:45.225Z,16.38
2022-08-27T09:27:52.251Z,15.32
2022-08-27T09:32:59.817Z,15.47
2022-08-27T09:38:05.450Z,14.82
2022-08-27T09:43:28.752Z,14.77
2022-08-27T09:48:34.455Z,14.10
2022-08-27T09:53:50.636Z,14.50
2022-08-27T09:59:00.215Z,12.07
2022-08-27T10:04:13.284Z,12.55
2022-08-27T10:09:34.082Z,11.70
2022-08-27T10:14:45.731Z,11.30
2022-08-27T10:20:00.014Z,10.65
2022-08-27T10:25:41.517Z,10.13
2022-08-27T10:30:59.707Z,10.77
2022-08-27T10:36:17.162Z,11.93
2022-08-27T10:41:40.991Z,10.55
2022-08-27T10:46:50.492Z,11.05
2022-08-27T10:52:32.481Z,12.05
2022-08-27T10:58:09.141Z,11.68
2022-08-27T11:03:17.171Z,11.07
2022-08-27T11:08:40.415Z,12.55
2022-08-27T11:13:48.637Z,11.65
2022-08-27T11:19:23.666Z,10.57
2022-08-27T11:24:39.548Z,11.60
2022-08-27T11:30:01.319Z,10.82
2022-08-27T11:35:24.358Z,11.48
2022-08-27T11:40:42.262Z,12.55
2022-08-27T11:51:10.113Z,12.23
2022-08-27T11:56:18.131Z,13.07
2022-08-27T12:01:29.211Z,13.77
2022-08-27T12:07:00.190Z,14.40
2022-08-27T12:12:19.236Z,15.05
2022-08-27T12:17:41.238Z,14.32
2022-08-27T12:23:07.944Z,17.17
2022-08-27T12:28:10.532Z,15.63
2022-08-27T12:33:20.192Z,15.70
2022-08-27T12:38:50.524Z,14.82
2022-08-27T12:44:07.639Z,15.75
2022-08-27T12:49:35.981Z,15.25
2022-08-27T12:54:52.498Z,15.23
2022-08-27T13:00:05.366Z,15.98
2022-08-27T13:05:34.698Z,17.90
2022-08-27T13:10:37.971Z,16.77
2022-08-27T13:21:46.469Z,17.45
2022-08-27T13:27:23.815Z,16.88
2022-08-27T13:32:28.349Z,17.63
2022-08-27T13:37:43.930Z,15.40
2022-08-27T13:42:57.037Z,15.55
2022-08-27T13:48:00.893Z,14.90
2022-08-27T13:58:49.590Z,15.68
2022-08-27T14:09:19.931Z,14.25
2022-08-27T14:14:38.540Z,15.27
2022-08-27T14:19:45.370Z,14.80
2022-08-27T14:24:53.431Z,14.02
2022-08-27T14:29:55.917Z,15.18
2022-08-27T14:34:58.401Z,14.95
2022-08-27T14:40:01.125Z,16.13
2022-08-27T14:45:06.919Z,16.67
2022-08-27T14:50:11.916Z,17.30
2022-08-27T14:55:14.668Z,22.48
2022-08-27T15:05:44.051Z,20.35
2022-08-27T15:16:05.964Z,20.40
2022-08-27T15:21:08.420Z,18.20
2022-08-27T15:26:10.766Z,19.10
2022-08-27T15:31:13.114Z,26.88
2022-08-27T15:36:15.775Z,27.20
2022-08-27T15:41:18.252Z,23.80
2022-08-27T15:46:20.685Z,22.73
2022-08-27T15:51:29.130Z,22.55
2022-08-27T15:56:34.588Z,19.73
2022-08-27T16:01:38.198Z,21.88
2022-08-27T16:06:42.821Z,41.53
2022-08-27T16:11:47.872Z,49.63
2022-08-27T16:16:50.652Z,44.35
2022-08-27T16:21:54.467Z,38.20
2022-08-27T16:26:56.784Z,67.28
2022-08-27T16:32:01.244Z,40.25
2022-08-27T16:37:03.939Z,27.83
2022-08-27T16:42:10.321Z,30.50
2022-08-27T16:47:12.744Z,30.05
2022-08-27T16:57:43.285Z,21.25
2022-08-27T17:08:26.698Z,20.95
2022-08-27T17:13:32.796Z,22.55
2022-08-27T17:18:38.786Z,25.58
2022-08-27T17:23:45.325Z,27.23
2022-08-27T17:28:47.947Z,24.45
2022-08-27T17:33:53.261Z,21.85
2022-08-27T17:38:56.205Z,22.08
2022-08-27T17:44:01.282Z,26.70
2022-08-27T17:49:06.508Z,23.80
2022-08-27T17:54:28.026Z,23.67
2022-08-27T17:59:31.875Z,23.88
2022-08-27T18:04:34.317Z,21.27
2022-08-27T18:09:36.921Z,22.52
2022-08-27T18:14:39.256Z,22.05
2022-08-27T18:19:45.488Z,25.88
2022-08-27T18:24:49.300Z,23.33
2022-08-27T18:29:51.694Z,25.73
2022-08-27T18:35:01.954Z,22.33
2022-08-27T18:40:06.745Z,25.83
2022-08-27T18:45:11.792Z,25.33
2022-08-27T18:50:17.595Z,26.75
2022-08-27T18:55:25.610Z,26.95
2022-08-27T19:00:29.000Z,25.30
2022-08-27T19:05:31.529Z,26.83
2022-08-27T19:10:34.588Z,26.60
2022-08-27T19:15:37.060Z,28.00
2022-08-27T19:20:39.453Z,28.63
2022-08-27T19:25:42.195Z,29.30
2022-08-27T19:30:45.135Z,33.75
2022-08-27T19:35:47.411Z,28.33
2022-08-27T19:40:49.740Z,28.83
2022-08-27T19:45:52.137Z,30.60
2022-08-27T19:50:57.733Z,36.03
2022-08-27T19:56:00.101Z,38.80
2022-08-27T20:01:07.715Z,32.92
2022-08-27T20:06:10.202Z,31.13
2022-08-27T20:11:12.819Z,29.83
2022-08-27T20:16:15.245Z,28.63
2022-08-27T20:21:17.761Z,29.13
2022-08-27T20:26:24.902Z,29.92
2022-08-27T20:31:29.864Z,30.92
2022-08-27T20:36:33.273Z,28.83
2022-08-27T20:41:37.903Z,32.40
2022-08-27T20:46:42.237Z,31.02
2022-08-27T20:52:02.676Z,31.67
2022-08-27T20:57:08.331Z,30.70
2022-08-27T21:02:12.306Z,29.58
2022-08-27T21:07:16.601Z,31.70
2022-08-27T21:12:22.583Z,30.00
2022-08-27T21:17:27.452Z,28.88
2022-08-27T21:22:29.804Z,30.23
2022-08-27T21:27:32.228Z,29.27
2022-08-27T21:32:34.487Z,30.48
2022-08-27T21:37:37.302Z,28.73
2022-08-27T21:42:39.715Z,30.77
2022-08-27T21:47:41.984Z,32.58
2022-08-27T21:52:44.391Z,29.90
2022-08-27T21:57:50.997Z,30.40
2022-08-27T22:02:53.362Z,32.92
2022-08-27T22:07:55.690Z,30.88
2022-08-27T22:13:00.194Z,29.98
2022-08-27T22:18:02.963Z,30.63
2022-08-27T22:23:10.073Z,28.45
2022-08-27T22:28:13.524Z,32.83
2022-08-27T22:33:16.445Z,31.13
2022-08-27T22:38:18.693Z,30.52
2022-08-27T22:43:21.168Z,32.30
2022-08-27T22:48:23.856Z,30.65
2022-08-27T22:53:26.375Z,30.23
2022-08-27T22:58:28.607Z,32.30
2022-08-27T23:03:30.935Z,30.02
2022-08-27T23:08:33.169Z,31.63
2022-08-27T23:13:35.354Z,33.22
2022-08-27T23:18:40.910Z,32.13
2022-08-27T23:23:43.360Z,34.70
2022-08-27T23:28:45.741Z,34.28
2022-08-27T23:33:52.398Z,34.77
2022-08-27T23:38:54.585Z,34.75
2022-08-27T23:43:57.165Z,34.90
2022-08-27T23:48:59.539Z,35.43
2022-08-27T23:54:02.837Z,33.95
2022-08-27T23:59:05.810Z,36.43
